createdAt,value
2019-05-09T00:01:48.839Z,95644.98
2019-05-09T00:06:43.421Z,95645.36
2019-05-09T00:11:38.011Z,95650.75
2019-05-09T00:16:33.478Z,95647.04
2019-05-09T00:21:44.748Z,95651.58
2019-05-09T00:26:39.390Z,95647.38
2019-05-09T00:31:45.264Z,95631.84
2019-05-09T00:36:39.856Z,95626.30
2019-05-09T00:41:34.522Z,95637.02
2019-05-09T00:46:36.716Z,95617.49
2019-05-09T00:51:31.317Z,95613.30
2019-05-09T00:56:25.973Z,95608.75
2019-05-09T01:01:20.716Z,95598.45
2019-05-09T01:06:15.328Z,95595.23
2019-05-09T01:11:14.638Z,95589.36
2019-05-09T01:16:06.435Z,95594.58
2019-05-09T01:21:01.032Z,95582.91
2019-05-09T01:25:55.617Z,95598.49
2019-05-09T01:30:50.223Z,95597.99
2019-05-09T01:35:44.802Z,95593.70
2019-05-09T01:40:40.067Z,95595.29
2019-05-09T01:45:34.713Z,95585.59
2019-05-09T01:50:29.331Z,95578.98
2019-05-09T01:55:25.618Z,95581.64
2019-05-09T02:00:20.362Z,95576.82
2019-05-09T02:05:15.141Z,95577.78
2019-05-09T02:10:10.073Z,95577.02
2019-05-09T02:15:10.208Z,95570.80
2019-05-09T02:20:05.938Z,95573.11
2019-05-09T02:25:00.543Z,95573.06
2019-05-09T02:29:55.244Z,95569.86
2019-05-09T02:34:49.831Z,95571.70
2019-05-09T02:39:44.411Z,95565.56
2019-05-09T02:44:39.593Z,95562.10
2019-05-09T02:49:34.409Z,95568.52
2019-05-09T02:54:30.034Z,95567.66
2019-05-09T02:59:39.588Z,95572.72
2019-05-09T03:04:34.270Z,95584.92
2019-05-09T03:09:28.962Z,95578.55
2019-05-09T03:14:23.664Z,95566.50
2019-05-09T03:19:19.437Z,95560.58
2019-05-09T03:24:14.567Z,95563.64
2019-05-09T03:29:10.806Z,95552.92
2019-05-09T03:34:09.048Z,95540.39
2019-05-09T03:39:01.852Z,95537.14
2019-05-09T03:43:58.341Z,95530.67
2019-05-09T03:49:03.321Z,95523.61
2019-05-09T03:53:57.917Z,95529.33
2019-05-09T03:58:52.500Z,95531.44
2019-05-09T04:03:48.133Z,95527.72
2019-05-09T04:08:42.877Z,95517.66
2019-05-09T04:13:39.068Z,95518.27
2019-05-09T04:18:33.656Z,95499.34
2019-05-09T04:23:28.238Z,95497.98
2019-05-09T04:28:22.839Z,95481.84
2019-05-09T04:33:17.814Z,95479.25
2019-05-09T04:38:12.585Z,95470.38
2019-05-09T04:43:15.383Z,95476.22
2019-05-09T04:48:03.527Z,95492.61
2019-05-09T04:52:58.145Z,95485.89
2019-05-09T04:57:52.783Z,95481.59
2019-05-09T05:02:49.012Z,95483.74
2019-05-09T05:07:43.629Z,95488.59
2019-05-09T05:12:38.350Z,95499.66
2019-05-09T05:17:32.950Z,95491.68
2019-05-09T05:22:29.179Z,95494.14
2019-05-09T05:27:23.850Z,95490.43
2019-05-09T05:32:23.095Z,95499.62
2019-05-09T05:37:18.322Z,95494.83
2019-05-09T05:42:12.932Z,95478.91
2019-05-09T05:47:09.186Z,95483.58
2019-05-09T05:52:03.769Z,95483.22
2019-05-09T05:56:58.367Z,95485.17
2019-05-09T06:01:52.962Z,95478.88
2019-05-09T06:06:48.131Z,95468.23
2019-05-09T06:11:43.132Z,95469.62
2019-05-09T06:16:43.359Z,95489.63
2019-05-09T06:21:38.281Z,95488.60
2019-05-09T06:26:32.942Z,95472.98
2019-05-09T06:31:28.440Z,95461.62
2019-05-09T06:36:23.232Z,95461.83
2019-05-09T06:41:17.866Z,95459.55
2019-05-09T06:46:21.388Z,95467.78
2019-05-09T06:51:18.900Z,95480.45
2019-05-09T06:56:12.473Z,95490.67
2019-05-09T07:01:18.380Z,95494.45
2019-05-09T07:06:14.663Z,95483.50
2019-05-09T07:11:11.558Z,95480.55
2019-05-09T07:16:09.497Z,95457.64
2019-05-09T07:21:04.284Z,95465.85
2019-05-09T07:26:17.509Z,95475.20
2019-05-09T07:31:29.457Z,95487.88
2019-05-09T07:36:24.038Z,95491.84
2019-05-09T07:41:18.774Z,95491.15
2019-05-09T07:46:19.531Z,95497.72
2019-05-09T07:51:14.256Z,95496.47
2019-05-09T07:56:10.463Z,95493.42
2019-05-09T08:01:05.185Z,95507.95
2019-05-09T08:06:00.125Z,95502.96
2019-05-09T08:10:54.707Z,95506.39
2019-05-09T08:15:49.400Z,95507.67
2019-05-09T08:20:44.012Z,95522.56
2019-05-09T08:25:38.748Z,95524.00
2019-05-09T08:30:42.993Z,95538.03
2019-05-09T08:35:49.885Z,95537.66
2019-05-09T08:40:48.640Z,95546.36
2019-05-09T08:45:49.997Z,95544.80
2019-05-09T08:50:50.944Z,95511.95
2019-05-09T08:55:52.760Z,95517.72
2019-05-09T09:01:03.861Z,95516.63
2019-05-09T09:05:59.699Z,95517.13
2019-05-09T09:11:01.739Z,95518.79
2019-05-09T09:16:14.973Z,95505.82
2019-05-09T09:21:02.490Z,95521.61
2019-05-09T09:25:59.678Z,95512.88
2019-05-09T09:30:55.673Z,95510.34
2019-05-09T09:35:51.694Z,95512.53
2019-05-09T09:40:47.783Z,95514.14
2019-05-09T09:45:48.078Z,95504.58
2019-05-09T09:50:43.131Z,95494.22
2019-05-09T09:55:38.596Z,95497.19
2019-05-09T10:00:48.488Z,95500.28
2019-05-09T10:05:43.210Z,95505.67
2019-05-09T10:10:39.047Z,95499.09
2019-05-09T10:15:51.362Z,95485.84
2019-05-09T10:20:48.502Z,95495.44
2019-05-09T10:25:43.276Z,95491.66
2019-05-09T10:30:38.404Z,95490.05
2019-05-09T10:35:33.274Z,95493.67
2019-05-09T10:40:28.269Z,95486.59
2019-05-09T10:45:28.344Z,95476.88
2019-05-09T10:50:23.014Z,95471.88
2019-05-09T10:55:17.987Z,95471.42
2019-05-09T11:00:13.177Z,95463.72
2019-05-09T11:05:09.852Z,95459.52
2019-05-09T11:10:23.995Z,95456.13
2019-05-09T11:15:09.117Z,95458.84
2019-05-09T11:20:08.710Z,95446.19
2019-05-09T11:25:04.435Z,95445.41
2019-05-09T11:29:59.039Z,95436.20
2019-05-09T11:34:57.531Z,95431.02
2019-05-09T11:39:51.762Z,95425.58
2019-05-09T11:44:46.857Z,95420.65
2019-05-09T11:49:41.456Z,95432.31
2019-05-09T11:54:38.702Z,95416.39
2019-05-09T11:59:32.445Z,95410.25
2019-05-09T12:04:28.165Z,95414.58
2019-05-09T12:09:23.339Z,95458.18
2019-05-09T12:14:18.191Z,95464.59
2019-05-09T12:19:12.798Z,95457.87
2019-05-09T12:24:09.053Z,95446.36
2019-05-09T12:29:03.939Z,95430.48
2019-05-09T12:33:59.589Z,95435.94
2019-05-09T12:38:54.853Z,95440.98
2019-05-09T12:43:50.078Z,95440.36
2019-05-09T12:48:44.697Z,95429.87
2019-05-09T12:53:39.706Z,95434.49
2019-05-09T12:58:34.703Z,95438.92
2019-05-09T13:03:30.322Z,95452.30
2019-05-09T13:08:28.073Z,95458.36
2019-05-09T13:13:22.910Z,95462.53
2019-05-09T13:18:22.788Z,95460.63
2019-05-09T13:23:14.987Z,95474.02
2019-05-09T13:28:10.705Z,95467.45
2019-05-09T13:33:10.100Z,95471.34
2019-05-09T13:38:02.007Z,95486.70
2019-05-09T13:42:59.676Z,95498.09
2019-05-09T13:47:57.924Z,95493.39
2019-05-09T13:52:53.938Z,95488.61
2019-05-09T13:57:48.977Z,95480.36
2019-05-09T14:02:45.154Z,95502.14
2019-05-09T14:07:40.269Z,95492.95
2019-05-09T14:12:34.865Z,95491.13
2019-05-09T14:17:48.204Z,95498.65
2019-05-09T14:22:29.619Z,95501.08
2019-05-09T14:27:25.459Z,95506.98
2019-05-09T14:32:31.109Z,95511.76
2019-05-09T14:37:24.442Z,95507.55
2019-05-09T14:42:19.094Z,95521.02
2019-05-09T14:47:13.808Z,95527.45
2019-05-09T14:52:08.484Z,95529.59
2019-05-09T14:57:03.073Z,95550.91
2019-05-09T15:01:59.205Z,95573.31
2019-05-09T15:06:53.871Z,95607.30
2019-05-09T15:11:48.743Z,95618.44
2019-05-09T15:16:43.477Z,95640.98
2019-05-09T15:21:38.489Z,95625.26
2019-05-09T15:26:33.183Z,95618.27
2019-05-09T15:31:28.654Z,95625.81
2019-05-09T15:36:23.443Z,95632.73
2019-05-09T15:41:18.483Z,95623.31
2019-05-09T15:46:14.735Z,95625.59
2019-05-09T15:51:09.415Z,95623.29
2019-05-09T15:56:04.069Z,95630.97
2019-05-09T16:00:59.104Z,95640.18
2019-05-09T16:05:53.774Z,95653.69
2019-05-09T16:10:48.378Z,95651.13
2019-05-09T16:15:42.963Z,95648.69
2019-05-09T16:20:41.129Z,95655.34
2019-05-09T16:25:33.957Z,95661.91
2019-05-09T16:30:28.616Z,95663.78
2019-05-09T16:35:23.233Z,95673.13
2019-05-09T16:40:17.964Z,95675.48
2019-05-09T16:45:13.861Z,95673.71
2019-05-09T16:50:12.226Z,95681.39
2019-05-09T16:55:12.492Z,95680.91
2019-05-09T17:00:15.283Z,95690.56
2019-05-09T17:05:10.083Z,95689.36
2019-05-09T17:10:08.334Z,95709.98
2019-05-09T17:15:04.130Z,95714.90
2019-05-09T17:19:58.747Z,95727.05
2019-05-09T17:24:53.332Z,95739.52
2019-05-09T17:29:48.090Z,95755.87
2019-05-09T17:34:42.701Z,95780.30
2019-05-09T17:39:38.650Z,95786.34
2019-05-09T17:44:33.469Z,95797.91
2019-05-09T17:49:28.262Z,95794.20
2019-05-09T17:54:22.815Z,95805.54
2019-05-09T17:59:18.358Z,95808.64
2019-05-09T18:04:13.909Z,95826.59
2019-05-09T18:09:09.481Z,95823.42
2019-05-09T18:14:04.129Z,95825.45
2019-05-09T18:19:01.273Z,95825.11
2019-05-09T18:23:55.859Z,95832.98
2019-05-09T18:28:50.464Z,95844.80
2019-05-09T18:33:47.621Z,95848.13
2019-05-09T18:38:42.663Z,95862.08
2019-05-09T18:43:37.237Z,95873.61
2019-05-09T18:48:31.915Z,95887.17
2019-05-09T18:53:26.568Z,95909.23
2019-05-09T18:58:21.263Z,95915.69
2019-05-09T19:03:15.929Z,95906.52
2019-05-09T19:08:10.525Z,95914.16
2019-05-09T19:13:05.348Z,95909.63
2019-05-09T19:18:05.835Z,95920.23
2019-05-09T19:23:00.418Z,95925.20
2019-05-09T19:27:55.016Z,95932.99
2019-05-09T19:32:49.597Z,95936.06
2019-05-09T19:37:44.276Z,95938.94
2019-05-09T19:42:38.872Z,95944.20
2019-05-09T19:47:33.471Z,95964.37
2019-05-09T19:52:37.915Z,95970.89
2019-05-09T19:57:24.368Z,95965.36
2019-05-09T20:02:19.036Z,95967.92
2019-05-09T20:07:13.651Z,95966.03
2019-05-09T20:12:15.979Z,95965.80
2019-05-09T20:17:10.571Z,95966.67
2019-05-09T20:22:05.372Z,95963.34
2019-05-09T20:27:00.121Z,95975.22
2019-05-09T20:31:54.721Z,95988.40
2019-05-09T20:36:49.309Z,95989.80
2019-05-09T20:41:45.027Z,96005.27
2019-05-09T20:46:39.810Z,96013.89
2019-05-09T20:51:34.666Z,96008.38
2019-05-09T20:56:29.500Z,96014.70
2019-05-09T21:01:24.274Z,96024.59
2019-05-09T21:06:19.060Z,96016.92
2019-05-09T21:11:13.837Z,96018.77
2019-05-09T21:16:08.653Z,96014.08
2019-05-09T21:21:03.442Z,96025.31
2019-05-09T21:25:58.252Z,96032.66
2019-05-09T21:30:53.006Z,96033.36
2019-05-09T21:35:47.607Z,96037.27
2019-05-09T21:40:42.216Z,96041.69
2019-05-09T21:45:36.813Z,96037.50
2019-05-09T21:50:31.390Z,96053.69
2019-05-09T21:55:26.076Z,96058.10
2019-05-09T22:00:26.883Z,96057.20
2019-05-09T22:05:21.606Z,96061.76
2019-05-09T22:10:16.438Z,96066.14
2019-05-09T22:15:12.160Z,96075.30
2019-05-09T22:20:09.666Z,96073.39
2019-05-09T22:25:06.877Z,96077.30
2019-05-09T22:30:01.491Z,96077.45
2019-05-09T22:34:56.151Z,96073.08
2019-05-09T22:39:50.791Z,96079.89
2019-05-09T22:44:46.058Z,96072.61
2019-05-09T22:49:40.642Z,96072.37
2019-05-09T22:54:35.265Z,96070.34
2019-05-09T22:59:29.843Z,96074.33
2019-05-09T23:04:24.451Z,96084.42
2019-05-09T23:09:19.030Z,96087.33
2019-05-09T23:14:13.637Z,96092.88
2019-05-09T23:19:08.239Z,96094.50
2019-05-09T23:24:07.651Z,96101.66
2019-05-09T23:29:02.263Z,96101.41
2019-05-09T23:33:56.864Z,96106.96
2019-05-09T23:39:08.842Z,96108.55
2019-05-09T23:44:03.428Z,96099.23
2019-05-09T23:48:58.017Z,96101.08
2019-05-09T23:53:54.190Z,96096.38
2019-05-09T23:59:06.436Z,96100.08
